Ana Sayfa
METAR-TAF:

METAR-TAF

Havaalanları :

Air Force Base

Langley, Virginia, Amerika Birleşik Devletleri

Enlem: 37-05N, Boylam: 076-21W, yükseklik: 3 m

Güncel hava durumu gözlemi

Rapor saat 22:56 UTC de 24 dakika önce yapıldı.
Sakin rüzgar
Sıcaklık 16°C
Nem 94%
Basınç 1016 hPa
Görüş mesafesi: 16.1 km
Açık gökyüzü

METAR: KLFI 232256Z AUTO 00000KT 10SM CLR 16/15 A2999 RMK AO2 SLP162 T01600149 $

Saat: 19:20 (23:20 UTC)

Tahmin

Rapor saat 17:00 UTC de 6 saat ve 20 dakika önce yapıldı.
Ayın 23'si saat 17 UTC'den ayın 24'si saat 23 UTC'ye kadar geçerli Tahmin
Rüzgar değişken yönden 6 kt
Görüş mesafesi 10 km veya daha fazla
5000 ft yükseklikte parçalı bulutlu

TAF: KLFI 231700Z 2317/2423 VRB06KT 9999 SCT050 QNH2998INS TX22/2417Z TN12/2409Z

4.000'den fazla havaalanı için hava durumu gözlemleri ve tahminleri (METAR ve TAF raporları).

Kullanılabilir istasyonlar harita üzerinde sarı ve kırmızı noktalarla gösterilir.

İstasyonun adını görmek için fareyi noktanın üzerinde gezdirin.

Sonrasında hava gözlem ve tahminlerini görmek için tıklayın.

Haritayı değiştirmek için: yaklaştırmak için siyah artı işaretli yeşil düğmeye ve uzaklaştırmak için de eksi işaretli düğmeye hızla tıklayın; bitişik haritalar için yeşil okları kullanın.


METAR-TAF: